Time;durP1;ratioP1;P1;durP2;ratioP2;P2;SDS_P1;SDS_P2;PMS_P1;PMS_P2;Temp;Humidity;BMP_temperature;BMP_pressure;BME280_temperature;BME280_humidity;BME280_pressure;Samples;Min_cycle;Max_cycle;Signal;HPM_P1;HPM_P2
2023/01/11 00:00:26;;;;;;;7.15;5.60;;;23.70;99.90;;;;;;4975383;28;20051;-59
2023/01/11 00:02:57;;;;;;;9.75;6.70;;;23.60;99.90;;;;;;4975617;28;20042;-59
2023/01/11 00:05:23;;;;;;;10.48;6.57;;;23.60;99.90;;;;;;4975644;28;20168;-59
2023/01/11 00:07:49;;;;;;;8.82;5.68;;;23.60;99.90;;;;;;4975552;28;20031;-60
2023/01/11 00:10:15;;;;;;;8.07;5.78;;;23.60;99.90;;;;;;4975526;28;20105;-59
2023/01/11 00:12:41;;;;;;;7.97;5.68;;;23.60;99.90;;;;;;4975414;28;20035;-60
2023/01/11 00:15:08;;;;;;;7.97;6.13;;;23.60;99.90;;;;;;4975554;28;20085;-60
2023/01/11 00:17:33;;;;;;;10.23;6.55;;;23.50;99.90;;;;;;4975513;28;20118;-60
2023/01/11 00:19:59;;;;;;;9.75;6.30;;;23.50;99.90;;;;;;4974333;28;20062;-59
2023/01/11 00:22:26;;;;;;;9.13;6.03;;;23.50;99.90;;;;;;4975182;28;20038;-60
2023/01/11 00:24:52;;;;;;;9.10;6.00;;;23.50;99.90;;;;;;4975260;28;20490;-60
2023/01/11 00:27:17;;;;;;;10.40;6.30;;;23.50;99.90;;;;;;4975340;28;20019;-60
2023/01/11 00:29:44;;;;;;;10.27;6.88;;;23.40;99.90;;;;;;4975271;28;20026;-60
2023/01/11 00:32:10;;;;;;;9.57;6.50;;;23.50;99.90;;;;;;4975194;28;20035;-60
2023/01/11 00:34:36;;;;;;;11.30;5.95;;;23.50;99.90;;;;;;4975135;28;20494;-60
2023/01/11 00:37:03;;;;;;;8.43;5.65;;;23.40;99.90;;;;;;4975325;28;20074;-60
2023/01/11 00:39:28;;;;;;;7.55;5.75;;;23.40;99.90;;;;;;4974300;28;20030;-60
2023/01/11 00:50:07;;;;;;;8.90;5.97;;;23.40;99.90;;;;;;4974891;28;20034;-59
2023/01/11 00:52:33;;;;;;;9.65;6.20;;;23.40;99.90;;;;;;4974954;28;20074;-59
2023/01/11 00:54:59;;;;;;;7.05;5.40;;;23.30;99.90;;;;;;4974775;28;20510;-59
2023/01/11 00:57:25;;;;;;;9.30;6.20;;;23.30;99.90;;;;;;4973451;28;20030;-59
2023/01/11 00:59:50;;;;;;;8.63;5.45;;;23.30;99.90;;;;;;4974948;28;20054;-59
2023/01/11 01:02:16;;;;;;;9.77;6.30;;;23.30;99.90;;;;;;4974686;28;20037;-59
2023/01/11 01:04:42;;;;;;;8.43;5.80;;;23.30;99.90;;;;;;4974386;28;20026;-59
2023/01/11 01:07:08;;;;;;;8.13;6.07;;;23.30;99.90;;;;;;4974488;28;20073;-60
2023/01/11 01:09:34;;;;;;;8.23;6.10;;;23.30;99.90;;;;;;4974674;28;20075;-59
2023/01/11 01:12:02;;;;;;;8.90;6.20;;;23.30;99.90;;;;;;4974361;28;20022;-60
2023/01/11 01:14:30;;;;;;;10.25;6.03;;;23.20;99.90;;;;;;4974353;28;20391;-60
2023/01/11 01:17:07;;;;;;;8.55;6.03;;;23.20;99.90;;;;;;4974279;28;20099;-60
2023/01/11 01:19:35;;;;;;;11.23;6.60;;;23.20;99.90;;;;;;4974655;28;20054;-60
2023/01/11 01:22:01;;;;;;;9.68;6.47;;;23.20;99.90;;;;;;4974254;28;20034;-60
2023/01/11 01:24:28;;;;;;;8.68;5.60;;;23.20;99.90;;;;;;4974055;28;20022;-60
2023/01/11 01:26:54;;;;;;;7.38;5.45;;;23.20;99.90;;;;;;4972837;28;20158;-60
2023/01/11 01:29:20;;;;;;;7.60;5.97;;;23.20;99.90;;;;;;4973079;28;20019;-60
2023/01/11 01:31:46;;;;;;;8.57;6.13;;;23.20;99.90;;;;;;4974158;28;20104;-60
2023/01/11 01:34:12;;;;;;;6.65;5.32;;;23.20;99.90;;;;;;4974070;28;20050;-60
2023/01/11 01:36:38;;;;;;;7.65;5.63;;;23.20;99.90;;;;;;4974211;28;20023;-60
2023/01/11 01:39:05;;;;;;;7.43;5.63;;;23.10;99.90;;;;;;4973940;28;20026;-60
2023/01/11 01:41:31;;;;;;;9.48;6.22;;;23.20;99.90;;;;;;4973803;28;20440;-60
2023/01/11 01:44:00;;;;;;;7.72;5.25;;;23.10;99.90;;;;;;4973909;28;20035;-60
2023/01/11 01:46:31;;;;;;;8.38;5.38;;;23.10;99.90;;;;;;4973781;28;20049;-60
2023/01/11 01:49:05;;;;;;;8.00;5.70;;;23.10;99.90;;;;;;4973866;28;20027;-60
2023/01/11 01:51:41;;;;;;;7.40;5.75;;;23.10;99.90;;;;;;4973728;28;20031;-60
2023/01/11 01:54:11;;;;;;;8.75;6.28;;;23.00;99.90;;;;;;4973872;28;20023;-60
2023/01/11 01:56:44;;;;;;;6.95;5.63;;;23.00;99.90;;;;;;4973908;28;20023;-60
2023/01/11 01:59:12;;;;;;;7.68;5.55;;;23.00;99.90;;;;;;4974191;28;20379;-60
2023/01/11 02:01:48;;;;;;;8.82;5.85;;;23.00;99.90;;;;;;4973656;28;20078;-59
2023/01/11 02:04:20;;;;;;;7.90;5.95;;;23.00;99.90;;;;;;4973625;28;20019;-61
2023/01/11 02:06:46;;;;;;;8.45;5.65;;;23.00;99.90;;;;;;4973652;28;20062;-61
2023/01/11 02:09:49;;;;;;;8.30;5.90;;;23.00;99.90;;;;;;4973503;28;20046;-59
2023/01/11 02:12:16;;;;;;;9.20;5.68;;;23.00;99.90;;;;;;4972671;28;20495;-59
2023/01/11 02:14:43;;;;;;;9.00;6.22;;;22.90;99.90;;;;;;4973402;28;20034;-59
2023/01/11 02:17:09;;;;;;;8.43;5.55;;;23.00;99.90;;;;;;4973538;28;20026;-59
2023/01/11 02:19:55;;;;;;;8.05;5.97;;;22.90;99.90;;;;;;4973451;28;20023;-59
2023/01/11 02:22:53;;;;;;;6.38;5.10;;;22.90;99.90;;;;;;4973285;28;20035;-60
2023/01/11 02:25:30;;;;;;;9.50;5.80;;;22.90;99.90;;;;;;4965106;28;20035;-60
2023/01/11 02:28:16;;;;;;;7.63;5.10;;;22.90;99.90;;;;;;4973311;28;20066;-60
2023/01/11 02:30:49;;;;;;;8.20;4.88;;;22.90;99.90;;;;;;4973189;28;20027;-60
2023/01/11 02:33:41;;;;;;;7.68;5.20;;;22.90;99.90;;;;;;4973190;28;20439;-60
2023/01/11 02:36:16;;;;;;;8.07;5.72;;;22.90;99.90;;;;;;4973468;28;20110;-59
2023/01/11 02:39:14;;;;;;;8.38;5.43;;;22.80;99.90;;;;;;4973467;28;20500;-58
2023/01/11 02:45:01;;;;;;;8.38;4.70;;;22.80;99.90;;;;;;4973144;28;20063;-59
2023/01/11 02:47:53;;;;;;;9.02;5.55;;;22.80;99.90;;;;;;4973105;28;20023;-58
2023/01/11 02:50:29;;;;;;;8.48;5.82;;;22.80;99.90;;;;;;4970237;28;20035;-59
2023/01/11 02:53:14;;;;;;;6.53;5.13;;;22.70;99.90;;;;;;4972997;28;20015;-59
2023/01/11 02:55:48;;;;;;;8.05;5.30;;;22.70;99.90;;;;;;4973379;28;20038;-59
2023/01/11 02:58:17;;;;;;;7.53;5.28;;;22.70;99.90;;;;;;4969782;28;20026;-64
2023/01/11 03:00:45;;;;;;;7.18;4.80;;;22.70;99.90;;;;;;4973151;28;20047;-60
2023/01/11 03:03:13;;;;;;;9.40;5.35;;;22.70;99.90;;;;;;4975287;28;20487;-60
2023/01/11 03:05:54;;;;;;;9.10;5.13;;;22.70;99.90;;;;;;4976409;28;20030;-61
2023/01/11 03:08:23;;;;;;;7.75;5.25;;;22.70;99.90;;;;;;4976494;28;20031;-64
2023/01/11 03:11:08;;;;;;;6.68;5.38;;;22.70;99.90;;;;;;4976305;28;20026;-61
2023/01/11 03:13:43;;;;;;;10.75;5.32;;;22.70;99.90;;;;;;4975608;28;20023;-63
2023/01/11 03:16:20;;;;;;;8.68;5.63;;;22.60;99.90;;;;;;4976309;28;20389;-64
2023/01/11 03:19:04;;;;;;;5.32;4.43;;;22.60;99.90;;;;;;4976202;28;20050;-62
2023/01/11 03:21:41;;;;;;;9.10;4.88;;;22.60;99.90;;;;;;4975738;28;20122;-61
2023/01/11 03:24:10;;;;;;;6.72;4.88;;;22.60;99.90;;;;;;4976093;28;20038;-61
2023/01/11 03:26:44;;;;;;;6.20;4.68;;;22.60;99.90;;;;;;4976045;28;20502;-62
2023/01/11 03:29:30;;;;;;;7.57;4.93;;;22.60;99.90;;;;;;4962971;28;20022;-62
2023/01/11 03:32:16;;;;;;;7.63;5.30;;;22.60;99.90;;;;;;4976027;28;20023;-61
2023/01/11 03:34:53;;;;;;;7.82;4.43;;;22.60;99.90;;;;;;4975441;28;20118;-61
2023/01/11 03:37:35;;;;;;;6.60;4.50;;;22.60;99.90;;;;;;4971267;28;20448;-58
2023/01/11 03:40:07;;;;;;;8.52;5.50;;;22.60;99.90;;;;;;4968774;28;20027;-58
2023/01/11 03:43:09;;;;;;;7.78;5.45;;;22.50;99.90;;;;;;4975579;28;20041;-59
2023/01/11 03:45:21;;;;;;;8.63;4.93;;;22.60;99.90;;;;;;4975408;28;20049;-58
2023/01/11 03:47:48;;;;;;;7.25;4.45;;;22.50;99.90;;;;;;4974433;28;20049;-58
2023/01/11 03:50:15;;;;;;;5.72;4.18;;;22.50;99.90;;;;;;4975017;28;20031;-59
2023/01/11 03:52:43;;;;;;;6.28;4.57;;;22.50;99.90;;;;;;4975166;28;20019;-58
2023/01/11 03:55:11;;;;;;;8.95;5.53;;;22.50;99.90;;;;;;4975466;28;20027;-58
2023/01/11 03:57:42;;;;;;;7.97;5.03;;;22.50;99.90;;;;;;4975510;28;20019;-58
2023/01/11 04:00:09;;;;;;;6.68;4.80;;;22.50;99.90;;;;;;4974518;23;20064;-50
2023/01/11 04:02:39;;;;;;;7.55;5.03;;;22.50;99.90;;;;;;4936907;29;20040;-49
2023/01/11 04:05:06;;;;;;;7.15;4.82;;;22.40;99.90;;;;;;4936883;29;20024;-49
2023/01/11 04:07:32;;;;;;;7.95;5.05;;;22.40;99.90;;;;;;4936909;29;20388;-50
2023/01/11 04:09:58;;;;;;;7.65;5.53;;;22.40;99.90;;;;;;4936855;29;20035;-50
2023/01/11 04:12:24;;;;;;;8.07;4.90;;;22.40;99.90;;;;;;4936714;29;20027;-50
2023/01/11 04:14:51;;;;;;;7.22;5.22;;;22.40;99.90;;;;;;4930755;29;20024;-50
2023/01/11 04:17:16;;;;;;;7.78;5.05;;;22.40;99.90;;;;;;4937082;29;20031;-50
2023/01/11 04:19:42;;;;;;;9.48;5.70;;;22.40;99.90;;;;;;4936692;29;20468;-50
2023/01/11 04:22:08;;;;;;;7.72;5.35;;;22.40;99.90;;;;;;4936359;29;20031;-50
2023/01/11 04:24:34;;;;;;;9.23;5.38;;;22.40;99.90;;;;;;4936495;29;20031;-49
2023/01/11 04:27:00;;;;;;;10.65;5.63;;;22.40;99.90;;;;;;4936589;29;20026;-50
2023/01/11 04:29:26;;;;;;;9.13;5.15;;;22.30;99.90;;;;;;4936449;29;20047;-50
2023/01/11 04:31:51;;;;;;;8.57;5.47;;;22.30;99.90;;;;;;4936400;29;20473;-49
2023/01/11 04:34:17;;;;;;;10.07;4.88;;;22.30;99.90;;;;;;4936620;29;20031;-49
2023/01/11 04:36:43;;;;;;;9.35;4.97;;;22.30;99.90;;;;;;4936245;29;20020;-49
2023/01/11 04:39:09;;;;;;;8.95;4.97;;;22.30;99.90;;;;;;4935089;29;20024;-49
2023/01/11 04:44:23;;;;;;;7.45;5.13;;;22.30;99.90;;;;;;4936372;29;20581;-49
2023/01/11 04:46:49;;;;;;;9.75;4.90;;;22.30;99.90;;;;;;4936210;29;20035;-49
2023/01/11 04:49:15;;;;;;;7.20;4.97;;;22.30;99.90;;;;;;4935440;29;20028;-49
2023/01/11 04:51:40;;;;;;;6.18;4.32;;;22.30;99.90;;;;;;4935567;29;20134;-49
2023/01/11 04:54:06;;;;;;;8.35;5.15;;;22.30;99.90;;;;;;4936238;29;20127;-49
2023/01/11 04:56:32;;;;;;;7.78;5.20;;;22.30;99.90;;;;;;4936302;29;20027;-49
2023/01/11 04:58:58;;;;;;;8.77;5.10;;;22.20;99.90;;;;;;4936085;29;20057;-49
2023/01/11 05:01:24;;;;;;;9.23;5.55;;;22.30;99.90;;;;;;4936966;29;20091;-49
2023/01/11 05:03:50;;;;;;;8.05;5.40;;;22.20;99.90;;;;;;4936255;29;20063;-49
2023/01/11 05:06:18;;;;;;;6.78;5.00;;;22.20;99.90;;;;;;4936210;29;20027;-49
2023/01/11 05:08:47;;;;;;;7.72;5.05;;;22.20;99.90;;;;;;4935539;29;20050;-49
2023/01/11 05:11:14;;;;;;;8.57;5.60;;;22.20;99.90;;;;;;4935729;29;20019;-49
2023/01/11 05:13:42;;;;;;;7.22;5.20;;;22.20;99.90;;;;;;4934665;29;20532;-49
2023/01/11 05:16:18;;;;;;;7.05;4.82;;;22.20;99.90;;;;;;4935844;29;20027;-50
2023/01/11 05:18:44;;;;;;;8.68;5.45;;;22.20;99.90;;;;;;4935781;29;20028;-50
2023/01/11 05:21:12;;;;;;;7.45;5.00;;;22.20;99.90;;;;;;4935656;29;20480;-50
2023/01/11 05:23:39;;;;;;;7.53;4.70;;;22.10;99.90;;;;;;4935754;29;20028;-50
2023/01/11 05:26:06;;;;;;;9.67;5.93;;;22.10;99.90;;;;;;4935430;29;20074;-49
2023/01/11 05:28:33;;;;;;;7.40;5.07;;;22.10;99.90;;;;;;4935699;29;20054;-50
2023/01/11 05:30:59;;;;;;;6.25;4.63;;;22.10;99.90;;;;;;4935789;29;20027;-49
2023/01/11 05:33:25;;;;;;;5.65;4.72;;;22.10;99.90;;;;;;4935622;29;20373;-49
2023/01/11 05:36:05;;;;;;;8.05;5.22;;;22.10;99.90;;;;;;4935790;29;20366;-49
2023/01/11 05:38:31;;;;;;;8.27;5.25;;;22.10;99.90;;;;;;4935465;29;20115;-49
2023/01/11 05:41:02;;;;;;;11.35;5.90;;;22.10;99.90;;;;;;4935485;29;20107;-49
2023/01/11 05:43:29;;;;;;;8.50;4.93;;;22.10;99.90;;;;;;4935476;29;20034;-49
2023/01/11 05:45:56;;;;;;;7.05;4.88;;;22.10;99.90;;;;;;4935381;29;20098;-49
2023/01/11 05:48:23;;;;;;;8.20;5.00;;;22.10;99.90;;;;;;4935502;29;20488;-50
2023/01/11 05:50:51;;;;;;;8.55;5.43;;;22.10;99.90;;;;;;4934165;29;20102;-50
2023/01/11 05:53:17;;;;;;;6.57;4.20;;;22.00;99.90;;;;;;4935335;29;20024;-50
2023/01/11 05:55:57;;;;;;;9.82;4.60;;;22.00;99.90;;;;;;4935148;29;20027;-50
2023/01/11 05:58:24;;;;;;;7.03;4.88;;;22.00;99.90;;;;;;4935438;29;20031;-49
2023/01/11 06:00:52;;;;;;;8.88;5.35;;;22.00;99.90;;;;;;4935189;29;20385;-50
2023/01/11 06:03:19;;;;;;;8.23;5.68;;;22.00;99.90;;;;;;4935097;29;20043;-50
2023/01/11 06:05:45;;;;;;;8.73;5.22;;;21.90;99.90;;;;;;4935157;29;20024;-50
2023/01/11 06:08:11;;;;;;;6.60;4.90;;;21.90;99.90;;;;;;4935012;29;20050;-50
2023/01/11 06:10:37;;;;;;;6.68;4.65;;;22.00;99.90;;;;;;4935049;29;20369;-49
2023/01/11 06:15:47;;;;;;;7.78;4.47;;;21.90;99.90;;;;;;4935062;29;20043;-48
2023/01/11 06:18:13;;;;;;;7.70;4.45;;;21.90;99.90;;;;;;4935072;29;20020;-49
2023/01/11 06:20:39;;;;;;;7.65;4.57;;;21.90;99.90;;;;;;4935023;29;20043;-49
2023/01/11 06:23:05;;;;;;;9.65;4.85;;;21.90;99.90;;;;;;4934830;29;20035;-49
2023/01/11 06:25:31;;;;;;;6.72;4.45;;;21.90;99.90;;;;;;4934896;29;20083;-49
2023/01/11 06:27:58;;;;;;;6.95;4.70;;;21.90;99.90;;;;;;4934900;29;20020;-49
2023/01/11 06:30:24;;;;;;;6.25;4.25;;;21.90;99.90;;;;;;4935218;29;20107;-49
2023/01/11 06:32:53;;;;;;;7.07;4.53;;;21.80;99.90;;;;;;4934901;29;20032;-48
2023/01/11 06:35:19;;;;;;;6.05;4.30;;;21.80;99.90;;;;;;4934809;29;20024;-49
2023/01/11 06:37:44;;;;;;;4.88;3.35;;;21.80;99.90;;;;;;4936371;29;20027;-49
2023/01/11 06:40:11;;;;;;;5.95;3.70;;;21.80;99.90;;;;;;4938654;29;20102;-50
2023/01/11 06:42:37;;;;;;;6.93;4.38;;;21.80;99.90;;;;;;4938550;29;20048;-49
2023/01/11 06:45:03;;;;;;;8.40;4.72;;;21.80;99.90;;;;;;4938406;29;20035;-48
2023/01/11 06:47:29;;;;;;;5.75;3.92;;;21.80;99.90;;;;;;4938575;29;20034;-48
2023/01/11 06:49:55;;;;;;;7.38;4.28;;;21.80;99.90;;;;;;4938581;29;20023;-48
2023/01/11 06:52:21;;;;;;;8.55;4.40;;;21.70;99.90;;;;;;4938297;29;20031;-49
2023/01/11 06:54:46;;;;;;;5.38;3.83;;;21.70;99.90;;;;;;4938490;29;20016;-49
2023/01/11 06:57:12;;;;;;;6.32;4.53;;;21.80;99.90;;;;;;4938411;29;20031;-49
2023/01/11 06:59:42;;;;;;;5.75;3.75;;;21.70;99.90;;;;;;4937977;29;20426;-49
2023/01/11 07:02:09;;;;;;;7.00;4.50;;;21.70;99.90;;;;;;4938225;29;20034;-49
2023/01/11 07:04:34;;;;;;;6.63;4.50;;;21.70;99.90;;;;;;4938151;29;20083;-49
2023/01/11 07:07:00;;;;;;;8.38;4.90;;;21.70;99.90;;;;;;4938307;29;20266;-49
2023/01/11 07:09:26;;;;;;;5.70;4.20;;;21.70;99.90;;;;;;4937311;29;20465;-50
2023/01/11 07:11:52;;;;;;;7.65;4.90;;;21.70;99.90;;;;;;4938156;29;20086;-49
2023/01/11 07:14:19;;;;;;;7.20;4.90;;;21.70;99.90;;;;;;4938078;29;20024;-50
2023/01/11 07:16:46;;;;;;;7.95;4.43;;;21.60;99.90;;;;;;4937986;29;20038;-49
2023/01/11 07:19:12;;;;;;;8.00;4.63;;;21.60;99.90;;;;;;4937907;29;20036;-49
2023/01/11 07:21:37;;;;;;;9.73;5.45;;;21.60;99.90;;;;;;4937982;29;20140;-49
2023/01/11 07:24:04;;;;;;;9.23;6.43;;;21.60;99.90;;;;;;4936534;29;20032;-49
2023/01/11 07:26:31;;;;;;;8.48;5.93;;;21.60;99.90;;;;;;4938063;29;20054;-49
2023/01/11 07:28:57;;;;;;;15.23;8.52;;;21.60;99.90;;;;;;4938081;29;20028;-49
2023/01/11 07:31:23;;;;;;;13.07;9.60;;;21.60;99.90;;;;;;4937845;29;20449;-49
2023/01/11 07:33:49;;;;;;;17.45;10.98;;;21.50;99.90;;;;;;4937875;29;20589;-49
2023/01/11 07:36:15;;;;;;;15.32;10.38;;;21.50;99.90;;;;;;4937901;29;20027;-49
2023/01/11 07:38:40;;;;;;;17.30;10.85;;;21.50;99.90;;;;;;4936387;29;20024;-49
2023/01/11 07:43:52;;;;;;;19.92;13.00;;;21.50;99.90;;;;;;4936321;29;20476;-51
2023/01/11 07:46:18;;;;;;;19.08;11.10;;;21.50;99.90;;;;;;4936260;29;20101;-49
2023/01/11 07:48:44;;;;;;;17.25;11.52;;;21.50;99.90;;;;;;4937650;29;20542;-49
2023/01/11 07:51:10;;;;;;;18.73;12.20;;;21.50;99.90;;;;;;4937554;29;20027;-49
2023/01/11 07:53:37;;;;;;;21.55;13.02;;;21.50;99.90;;;;;;4937327;29;20020;-49
2023/01/11 07:56:03;;;;;;;;;;;21.50;99.90;;;;;;4937813;29;20027;-50
2023/01/11 07:58:30;;;;;;;18.40;13.27;;;21.50;99.90;;;;;;4937690;29;20350;-50
2023/01/11 08:00:58;;;;;;;16.33;11.88;;;21.50;99.90;;;;;;4937086;29;20051;-49
2023/01/11 08:03:24;;;;;;;19.08;12.57;;;21.50;99.90;;;;;;4937333;29;20063;-50
2023/01/11 08:05:51;;;;;;;20.50;13.57;;;21.50;99.90;;;;;;4936015;29;20055;-49
2023/01/11 08:08:17;;;;;;;17.85;10.88;;;21.60;99.90;;;;;;4937300;29;20028;-50
2023/01/11 08:10:42;;;;;;;17.90;12.32;;;21.60;99.90;;;;;;4937184;29;20024;-49
2023/01/11 08:15:57;;;;;;;16.23;10.65;;;21.70;99.90;;;;;;4937304;29;20046;-49
2023/01/11 08:18:23;;;;;;;15.18;11.18;;;21.70;99.90;;;;;;4937014;29;20020;-49
2023/01/11 08:20:51;;;;;;;13.80;10.13;;;21.70;99.90;;;;;;4937047;29;20043;-50
2023/01/11 08:23:17;;;;;;;14.68;10.05;;;21.70;99.90;;;;;;4936879;29;20122;-49
2023/01/11 08:25:43;;;;;;;12.23;9.07;;;21.80;99.90;;;;;;4937017;29;20075;-49
2023/01/11 08:28:10;;;;;;;18.30;10.02;;;21.80;99.90;;;;;;4936949;29;20024;-49
2023/01/11 08:30:37;;;;;;;12.60;8.30;;;21.80;99.90;;;;;;4936707;29;20024;-49
2023/01/11 08:33:04;;;;;;;14.43;9.43;;;21.90;99.90;;;;;;4936937;29;20030;-50
2023/01/11 08:35:35;;;;;;;10.38;7.88;;;21.90;99.90;;;;;;4936928;29;20035;-49
2023/01/11 08:38:01;;;;;;;10.65;7.47;;;21.90;99.90;;;;;;4936951;29;20027;-50
2023/01/11 08:40:27;;;;;;;10.98;8.30;;;21.90;99.90;;;;;;4935442;29;20106;-49
2023/01/11 08:42:57;;;;;;;8.73;6.63;;;22.00;99.90;;;;;;4936481;29;20118;-49
2023/01/11 08:45:23;;;;;;;10.18;7.10;;;22.00;99.90;;;;;;4936535;29;20082;-50
2023/01/11 08:47:50;;;;;;;9.55;6.88;;;22.00;99.90;;;;;;4936430;29;20031;-49
2023/01/11 08:50:17;;;;;;;8.57;6.20;;;22.00;99.90;;;;;;4936490;29;20020;-49
2023/01/11 08:52:43;;;;;;;10.43;6.10;;;22.10;99.90;;;;;;4936362;29;20024;-49
2023/01/11 08:55:09;;;;;;;8.32;6.32;;;22.10;99.90;;;;;;4936462;29;20024;-49
2023/01/11 08:57:36;;;;;;;8.27;6.13;;;22.20;99.90;;;;;;4935064;29;20015;-49
2023/01/11 09:00:04;;;;;;;7.50;5.57;;;22.20;99.90;;;;;;4935493;29;20048;-50
2023/01/11 09:02:30;;;;;;;8.93;5.60;;;22.20;99.90;;;;;;4936105;29;20050;-49
2023/01/11 09:04:56;;;;;;;8.18;4.45;;;22.20;99.90;;;;;;4936201;29;20424;-50
2023/01/11 09:07:21;;;;;;;7.78;5.05;;;22.30;99.90;;;;;;4936069;29;20491;-49
2023/01/11 09:09:47;;;;;;;8.20;4.63;;;22.30;99.90;;;;;;4936057;29;20024;-50
2023/01/11 09:12:13;;;;;;;8.18;4.88;;;22.30;99.90;;;;;;4936063;29;20456;-49
2023/01/11 09:14:40;;;;;;;6.28;4.35;;;22.30;99.90;;;;;;4934674;29;20024;-49
2023/01/11 09:17:06;;;;;;;6.90;4.60;;;22.40;99.90;;;;;;4936202;29;20024;-49
2023/01/11 09:19:32;;;;;;;7.22;4.32;;;22.40;99.90;;;;;;4935999;29;20687;-49
2023/01/11 09:22:01;;;;;;;7.88;4.40;;;22.40;99.90;;;;;;4935653;29;20045;-51
2023/01/11 09:24:28;;;;;;;5.95;4.03;;;22.40;99.90;;;;;;4935761;29;20469;-50
2023/01/11 09:26:57;;;;;;;5.85;4.25;;;22.50;99.90;;;;;;4935637;29;20024;-50
2023/01/11 09:29:23;;;;;;;6.68;4.38;;;22.50;99.90;;;;;;4935755;29;20400;-50
2023/01/11 09:31:49;;;;;;;5.50;4.20;;;22.50;99.90;;;;;;4935750;29;20060;-50
2023/01/11 09:34:15;;;;;;;6.22;4.28;;;22.50;99.90;;;;;;4935756;29;20028;-51
2023/01/11 09:36:41;;;;;;;6.03;3.90;;;22.60;99.90;;;;;;4934283;29;20024;-50
2023/01/11 09:39:11;;;;;;;9.25;4.47;;;22.60;99.90;;;;;;4934790;29;20034;-50
2023/01/11 09:42:07;;;;;;;5.72;3.97;;;22.60;99.90;;;;;;4935895;29;20079;-50
2023/01/11 09:44:44;;;;;;;6.03;4.07;;;22.60;99.90;;;;;;4935610;29;20059;-50
2023/01/11 09:47:16;;;;;;;7.18;3.58;;;22.70;99.90;;;;;;4935487;29;20020;-50
2023/01/11 09:49:47;;;;;;;7.28;4.45;;;22.70;99.90;;;;;;4935481;29;20028;-50
2023/01/11 09:52:25;;;;;;;13.75;4.93;;;22.70;99.90;;;;;;4935514;29;20063;-50
2023/01/11 09:54:51;;;;;;;7.18;4.70;;;22.80;99.90;;;;;;4935451;29;20032;-50
2023/01/11 09:57:37;;;;;;;6.32;4.40;;;22.80;99.90;;;;;;4935464;29;20042;-50
2023/01/11 10:00:22;;;;;;;7.70;4.72;;;22.80;99.90;;;;;;4935133;29;20083;-51
2023/01/11 10:03:19;;;;;;;7.82;5.57;;;22.90;99.90;;;;;;4935178;29;20038;-50
2023/01/11 10:06:08;;;;;;;6.20;4.38;;;22.90;99.90;;;;;;4935213;29;20350;-50
2023/01/11 10:08:58;;;;;;;7.70;4.88;;;22.90;99.90;;;;;;4935206;29;20053;-51
2023/01/11 10:11:46;;;;;;;7.05;4.22;;;23.00;99.90;;;;;;4933404;29;20056;-50
2023/01/11 10:14:17;;;;;;;7.95;4.20;;;23.00;99.90;;;;;;4934940;29;20098;-50
2023/01/11 10:16:54;;;;;;;6.07;4.32;;;23.10;99.90;;;;;;4933789;29;20050;-50
2023/01/11 10:19:37;;;;;;;6.78;4.30;;;23.10;99.90;;;;;;4935049;29;20103;-50
2023/01/11 10:22:11;;;;;;;7.10;3.90;;;23.20;99.90;;;;;;4934979;29;20055;-50
2023/01/11 10:24:48;;;;;;;6.35;3.72;;;23.20;99.90;;;;;;4934961;29;20020;-50
2023/01/11 10:27:48;;;;;;;4.80;3.65;;;23.30;99.90;;;;;;4934932;29;20059;-50
2023/01/11 10:36:20;;;;;;;4.80;3.75;;;23.40;99.90;;;;;;4935289;29;20031;-50
2023/01/11 10:41:40;;;;;;;7.55;3.58;;;23.50;99.90;;;;;;4934700;29;20033;-51
2023/01/11 10:44:18;;;;;;;5.28;3.33;;;23.50;99.90;;;;;;4934897;29;20358;-50
2023/01/11 10:46:51;;;;;;;5.72;2.75;;;23.60;99.90;;;;;;4934966;29;20035;-50
2023/01/11 10:49:39;;;;;;;4.55;3.20;;;23.60;99.90;;;;;;4934749;29;20384;-50
2023/01/11 10:52:23;;;;;;;4.57;3.13;;;23.70;99.90;;;;;;4934688;29;20038;-50
2023/01/11 10:54:53;;;;;;;5.20;2.80;;;23.70;99.90;;;;;;4933304;29;20067;-50
2023/01/11 10:57:46;;;;;;;6.55;3.17;;;23.70;99.90;;;;;;4934614;29;20110;-51
2023/01/11 11:00:16;;;;;;;7.30;2.90;;;23.80;99.90;;;;;;4934634;29;20040;-50
2023/01/11 11:02:42;;;;;;;3.90;2.80;;;23.80;99.90;;;;;;4934728;29;20118;-51
2023/01/11 11:05:39;;;;;;;3.60;2.95;;;23.90;99.90;;;;;;4934806;29;20063;-50
2023/01/11 11:08:10;;;;;;;4.80;2.50;;;23.90;99.90;;;;;;4929109;29;20047;-51
2023/01/11 11:10:57;;;;;;;4.22;2.75;;;23.90;99.90;;;;;;4934903;29;20047;-50
2023/01/11 11:13:29;;;;;;;;;;;23.90;99.90;;;;;;4935032;29;20019;-50
2023/01/11 11:16:06;;;;;;;4.78;2.22;;;24.00;99.90;;;;;;4949230;29;20427;-51
2023/01/11 11:18:31;;;;;;;4.93;2.13;;;24.00;99.90;;;;;;4934685;29;20107;-50
2023/01/11 11:21:05;;;;;;;3.67;2.40;;;24.10;99.90;;;;;;4934629;29;20490;-50
2023/01/11 11:23:33;;;;;;;3.92;2.30;;;24.10;99.90;;;;;;4934605;29;20559;-50
2023/01/11 11:26:03;;;;;;;3.72;2.25;;;24.10;99.90;;;;;;4937980;29;20038;-51
2023/01/11 11:28:31;;;;;;;3.10;2.17;;;24.10;99.90;;;;;;4936599;29;20024;-51
2023/01/11 11:31:03;;;;;;;3.15;1.90;;;24.20;99.90;;;;;;4937878;29;20348;-51
2023/01/11 11:33:39;;;;;;;7.30;2.22;;;24.20;99.90;;;;;;4937836;29;20040;-51
2023/01/11 11:36:10;;;;;;;3.03;2.10;;;24.20;99.90;;;;;;4937777;29;20024;-51
2023/01/11 11:38:37;;;;;;;3.53;1.98;;;24.20;99.90;;;;;;4937792;29;20034;-50
2023/01/11 11:41:05;;;;;;;3.70;2.05;;;24.30;99.90;;;;;;4937772;29;20082;-50
2023/01/11 11:43:33;;;;;;;2.75;2.05;;;24.30;99.90;;;;;;4937646;29;20040;-50
2023/01/11 11:46:23;;;;;;;3.58;1.70;;;24.30;99.90;;;;;;4937622;29;20158;-51
2023/01/11 11:49:15;;;;;;;3.67;2.20;;;24.30;99.90;;;;;;4927447;29;20524;-50
2023/01/11 11:51:43;;;;;;;2.40;1.73;;;24.40;99.90;;;;;;4937721;29;20381;-51
2023/01/11 11:54:18;;;;;;;;;;;24.40;99.90;;;;;;4937988;29;20188;-50
2023/01/11 11:56:44;;;;;;;3.13;2.03;;;24.40;99.90;;;;;;4937320;29;20009;-51
2023/01/11 11:59:14;;;;;;;4.72;2.38;;;24.50;99.90;;;;;;4937357;29;20058;-51
2023/01/11 12:01:45;;;;;;;3.42;1.55;;;24.50;99.90;;;;;;4937222;29;20059;-50
2023/01/11 12:04:17;;;;;;;4.22;1.88;;;24.50;99.90;;;;;;4936155;29;20020;-50
2023/01/11 12:06:47;;;;;;;2.63;1.80;;;24.50;99.90;;;;;;4937179;29;20147;-50
2023/01/11 12:09:28;;;;;;;4.88;2.13;;;24.60;99.90;;;;;;4937237;29;20012;-50
2023/01/11 12:11:55;;;;;;;4.40;1.63;;;24.60;99.90;;;;;;4937183;29;20039;-51
2023/01/11 12:14:30;;;;;;;2.55;1.40;;;24.60;99.90;;;;;;4937108;29;20024;-51
2023/01/11 12:16:57;;;;;;;2.72;1.70;;;24.60;99.90;;;;;;4935878;29;20115;-51
2023/01/11 12:19:38;;;;;;;6.70;2.10;;;24.70;99.90;;;;;;4937058;29;20019;-50
2023/01/11 12:22:22;;;;;;;2.50;1.83;;;24.70;99.90;;;;;;4936754;29;20044;-51
2023/01/11 12:25:25;;;;;;;2.38;1.70;;;24.70;99.90;;;;;;4937026;29;20027;-50
2023/01/11 12:28:09;;;;;;;4.63;1.90;;;24.70;99.90;;;;;;4936931;29;20338;-51
2023/01/11 12:31:10;;;;;;;3.13;2.05;;;24.80;99.90;;;;;;4936836;29;20031;-51
2023/01/11 12:33:45;;;;;;;2.40;2.08;;;24.80;99.90;;;;;;4933488;29;20036;-51
2023/01/11 12:36:11;;;;;;;4.95;1.92;;;24.80;99.90;;;;;;4934859;29;20397;-50
2023/01/11 12:38:48;;;;;;;3.38;2.00;;;24.80;99.90;;;;;;4936159;29;20480;-51
2023/01/11 12:41:43;;;;;;;;;;;24.80;99.90;;;;;;4936606;29;20039;-50
2023/01/11 12:44:30;;;;;;;4.95;1.60;;;24.90;99.90;;;;;;4917255;29;20257;-51
2023/01/11 12:47:03;;;;;;;;;;;24.90;99.90;;;;;;4932540;29;20034;-50
2023/01/11 12:50:01;;;;;;;3.20;1.67;;;24.90;99.90;;;;;;4917514;29;19907;-50
2023/01/11 12:53:11;;;;;;;3.75;1.80;;;24.90;99.90;;;;;;4924730;29;20027;-51
2023/01/11 12:55:47;;;;;;;2.75;1.30;;;25.00;99.90;;;;;;4917566;29;20028;-50
2023/01/11 12:58:43;;;;;;;3.55;1.65;;;25.00;99.90;;;;;;4934685;29;20035;-52
2023/01/11 13:01:37;;;;;;;2.85;1.20;;;25.00;99.90;;;;;;4933590;29;20051;-51
2023/01/11 13:04:13;;;;;;;2.72;1.13;;;25.00;99.90;;;;;;4936004;29;20456;-51
2023/01/11 13:07:00;;;;;;;3.00;1.40;;;25.00;99.90;;;;;;4924435;29;20102;-51
2023/01/11 13:09:48;;;;;;;2.70;1.52;;;25.10;99.90;;;;;;4934514;29;20380;-51
2023/01/11 13:12:37;;;;;;;3.28;1.20;;;25.10;99.90;;;;;;4935412;29;20247;-51
2023/01/11 13:15:22;;;;;;;4.07;1.30;;;25.00;99.90;;;;;;4929944;29;20040;-52
2023/01/11 13:17:58;;;;;;;4.82;1.25;;;25.10;99.90;;;;;;4935770;29;20027;-52
2023/01/11 13:20:47;;;;;;;9.27;1.58;;;25.10;99.90;;;;;;4935353;29;20079;-52
2023/01/11 13:23:23;;;;;;;3.45;1.50;;;25.10;99.90;;;;;;4935493;29;20392;-51
2023/01/11 13:25:51;;;;;;;5.05;1.60;;;25.10;99.90;;;;;;4934821;29;20067;-50
2023/01/11 13:28:39;;;;;;;2.15;1.33;;;25.10;99.90;;;;;;4935518;29;20050;-51
2023/01/11 13:31:08;;;;;;;3.75;1.63;;;25.10;99.90;;;;;;4935560;29;20016;-49
2023/01/11 13:33:36;;;;;;;114.90;12.13;;;25.10;99.90;;;;;;4935100;29;20648;-50
2023/01/11 13:36:25;;;;;;;52.60;6.13;;;25.10;99.90;;;;;;4935365;29;20038;-50
2023/01/11 13:39:03;;;;;;;33.83;6.13;;;25.00;99.90;;;;;;4935458;29;20032;-51